Time;durP1;ratioP1;P1;durP2;ratioP2;P2;SDS_P1;SDS_P2;PMS_P1;PMS_P2;Temp;Humidity;BMP_temperature;BMP_pressure;BME280_temperature;BME280_humidity;BME280_pressure;Samples;Min_cycle;Max_cycle;Signal;HPM_P1;HPM_P2
2022/12/30 00:02:02;;;;;;;1.20;1.10;;;8.70;1.00;;;;;;5057278;28;20501;-78
2022/12/30 00:04:31;;;;;;;1.10;1.10;;;8.80;99.90;;;;;;5056582;28;20482;-77
2022/12/30 00:07:01;;;;;;;1.67;1.57;;;8.80;1.00;;;;;;5054706;28;20537;-78
2022/12/30 00:09:29;;;;;;;2.63;1.10;;;8.70;99.90;;;;;;5054451;28;20459;-77
2022/12/30 00:33:06;;;;;;;1.63;1.63;;;8.70;99.90;;;;;;5056383;28;20464;-78
2022/12/30 00:34:16;;;;;;;1.30;1.30;;;8.70;99.90;;;;;;5052986;28;20507;-78
2022/12/30 00:36:44;;;;;;;1.50;1.40;;;8.70;99.90;;;;;;5052628;28;20515;-78
2022/12/30 00:39:14;;;;;;;1.30;1.20;;;8.70;99.90;;;;;;5054681;28;20974;-77
2022/12/30 00:44:27;;;;;;;1.10;1.10;;;8.70;99.90;;;;;;5057184;28;20547;-78
2022/12/30 00:46:57;;;;;;;2.00;1.20;;;8.70;1.00;;;;;;5058451;28;20459;-78
2022/12/30 00:57:44;;;;;;;1.07;1.07;;;8.60;1.00;;;;;;5056949;28;20449;-77
2022/12/30 01:00:13;;;;;;;1.00;1.00;;;8.50;1.00;;;;;;5059041;28;20457;-78
2022/12/30 01:02:41;;;;;;;2.63;1.10;;;8.50;99.90;;;;;;5056494;28;20538;-77
2022/12/30 01:05:10;;;;;;;1.20;1.20;;;8.60;1.00;;;;;;5051180;28;20511;-78
2022/12/30 01:07:38;;;;;;;1.03;1.03;;;8.60;1.00;;;;;;5056032;28;20459;-78
2022/12/30 01:10:11;;;;;;;1.03;1.03;;;8.50;99.90;;;;;;5057616;28;20850;-77
2022/12/30 01:12:39;;;;;;;1.00;1.00;;;8.40;99.90;;;;;;5055421;28;21047;-77
2022/12/30 01:15:09;;;;;;;1.10;1.10;;;8.40;56.10;;;;;;5056862;28;20524;-79
2022/12/30 01:17:37;;;;;;;1.10;1.10;;;8.50;89.80;;;;;;5057873;28;20485;-79
2022/12/30 01:20:06;;;;;;;1.10;1.10;;;8.40;99.90;;;;;;5056035;28;20976;-78
2022/12/30 01:22:34;;;;;;;1.20;1.20;;;8.40;18.20;;;;;;5055250;28;20997;-78
2022/12/30 01:25:03;;;;;;;1.40;1.30;;;8.40;86.20;;;;;;5055567;28;20492;-78
2022/12/30 01:27:32;;;;;;;1.10;1.10;;;8.40;1.00;;;;;;5057326;28;20559;-78
2022/12/30 01:30:01;;;;;;;1.10;1.10;;;8.40;99.90;;;;;;5058221;28;21351;-77
2022/12/30 01:32:31;;;;;;;1.00;1.00;;;8.40;99.90;;;;;;5054304;28;20538;-78
2022/12/30 01:34:59;;;;;;;1.10;1.10;;;8.40;1.00;;;;;;5056413;28;20510;-77
2022/12/30 01:37:27;;;;;;;1.20;1.20;;;8.40;99.90;;;;;;5054981;28;20461;-78
2022/12/30 01:39:55;;;;;;;1.20;1.20;;;8.40;99.90;;;;;;5054960;28;20484;-78
2022/12/30 01:42:25;;;;;;;2.63;1.10;;;8.30;99.90;;;;;;5053667;28;20497;-78
2022/12/30 01:44:59;;;;;;;1.53;1.10;;;8.30;99.90;;;;;;5074021;28;21026;-76
2022/12/30 01:47:41;;;;;;;1.10;1.10;;;8.30;1.00;;;;;;5053956;28;20469;-77
2022/12/30 01:50:28;;;;;;;1.20;1.20;;;8.20;99.90;;;;;;5057790;28;20460;-77
2022/12/30 01:53:01;;;;;;;1.27;1.27;;;8.10;99.90;;;;;;5050160;28;21036;-78
2022/12/30 01:55:33;;;;;;;1.20;1.10;;;8.00;1.00;;;;;;5054249;28;20454;-78
2022/12/30 01:58:03;;;;;;;1.20;1.20;;;8.20;99.90;;;;;;5055161;28;20490;-79
2022/12/30 02:00:33;;;;;;;1.20;1.20;;;8.20;43.50;;;;;;5055688;28;20527;-77
2022/12/30 02:03:01;;;;;;;1.10;1.10;;;8.20;1.00;;;;;;5055595;28;20479;-78
2022/12/30 02:05:32;;;;;;;1.10;1.10;;;8.30;1.00;;;;;;5056612;28;20514;-77
2022/12/30 02:08:06;;;;;;;1.10;1.10;;;8.20;1.00;;;;;;5056599;28;20461;-78
2022/12/30 02:10:37;;;;;;;1.20;1.20;;;8.30;90.80;;;;;;5053861;28;20478;-78
2022/12/30 02:13:05;;;;;;;2.10;1.10;;;8.20;99.90;;;;;;5054772;28;21035;-77
2022/12/30 02:15:51;;;;;;;1.30;1.20;;;8.20;99.90;;;;;;5054142;28;20522;-78
2022/12/30 02:18:26;;;;;;;1.10;1.10;;;8.20;99.90;;;;;;5053518;28;20461;-78
2022/12/30 02:21:26;;;;;;;1.63;1.10;;;8.20;99.90;;;;;;5058682;28;21025;-78
2022/12/30 02:24:34;;;;;;;1.60;1.00;;;8.20;99.90;;;;;;5045029;28;20473;-77
2022/12/30 02:27:18;;;;;;;1.43;1.13;;;8.10;99.90;;;;;;5048432;28;20904;-78
2022/12/30 02:30:06;;;;;;;1.10;1.10;;;8.00;99.90;;;;;;5056833;28;20576;-77
2022/12/30 02:32:56;;;;;;;3.27;1.20;;;8.00;99.90;;;;;;5052100;28;20517;-77
2022/12/30 02:35:31;;;;;;;1.03;1.03;;;7.90;1.00;;;;;;5052111;28;20466;-79
2022/12/30 02:38:09;;;;;;;1.17;1.10;;;7.90;99.90;;;;;;5054193;28;20456;-77
2022/12/30 02:46:23;;;;;;;1.17;1.07;;;7.80;1.00;;;;;;5055342;28;20883;-77
2022/12/30 02:48:57;;;;;;;1.20;1.10;;;7.80;1.00;;;;;;5055967;28;21106;-78
2022/12/30 02:54:12;;;;;;;1.10;1.10;;;7.80;1.00;;;;;;5052688;28;20591;-77
2022/12/30 02:56:48;;;;;;;1.10;1.10;;;7.80;99.90;;;;;;5057256;28;20580;-77
2022/12/30 03:05:20;;;;;;;1.10;1.00;;;7.80;99.90;;;;;;5056016;28;20455;-78
2022/12/30 03:07:56;;;;;;;1.37;1.37;;;7.90;99.90;;;;;;5057660;28;20454;-77
2022/12/30 03:13:23;;;;;;;1.07;1.07;;;7.90;99.90;;;;;;5053446;28;20473;-75
2022/12/30 03:15:57;;;;;;;1.00;1.00;;;7.70;1.00;;;;;;5054184;28;20447;-77
2022/12/30 03:18:27;;;;;;;1.00;1.00;;;7.80;99.90;;;;;;5054277;28;20507;-78
2022/12/30 03:20:57;;;;;;;0.90;0.90;;;7.70;99.90;;;;;;5053623;28;20481;-77
2022/12/30 03:29:01;;;;;;;0.90;0.90;;;7.80;1.00;;;;;;5052918;28;20916;-78
2022/12/30 03:31:29;;;;;;;1.73;1.00;;;7.80;99.90;;;;;;5052009;28;20479;-78
2022/12/30 03:33:57;;;;;;;0.90;0.90;;;7.80;99.90;;;;;;5052570;28;20460;-78
2022/12/30 03:36:30;;;;;;;1.10;1.10;;;7.70;99.90;;;;;;5055108;28;20451;-78
2022/12/30 03:39:03;;;;;;;1.00;1.00;;;7.70;1.00;;;;;;5055622;28;20555;-77
2022/12/30 03:41:32;;;;;;;0.97;0.97;;;7.70;1.00;;;;;;5055329;28;20483;-76
2022/12/30 03:44:00;;;;;;;0.90;0.90;;;7.60;99.90;;;;;;5052700;28;21000;-78
2022/12/30 03:46:31;;;;;;;1.07;1.00;;;7.70;99.90;;;;;;5057741;28;21043;-78
2022/12/30 03:49:00;;;;;;;2.20;0.97;;;7.60;1.00;;;;;;5053132;28;20481;-77
2022/12/30 03:51:29;;;;;;;1.13;1.03;;;7.70;99.90;;;;;;5050929;28;20559;-78
2022/12/30 03:53:57;;;;;;;1.30;1.07;;;7.70;1.00;;;;;;5052725;28;20477;-78
2022/12/30 03:56:26;;;;;;;1.27;1.00;;;7.70;1.00;;;;;;5051576;28;20958;-78
2022/12/30 03:58:54;;;;;;;0.90;0.90;;;7.70;1.00;;;;;;5052320;28;20553;-77
2022/12/30 04:01:22;;;;;;;1.73;1.00;;;7.60;5.70;;;;;;5056348;28;20567;-77
2022/12/30 04:03:50;;;;;;;0.90;0.90;;;7.60;1.00;;;;;;5052606;28;20506;-78
2022/12/30 04:06:19;;;;;;;0.93;0.93;;;7.50;1.00;;;;;;5054640;28;20512;-77
2022/12/30 04:08:48;;;;;;;2.10;1.20;;;7.60;1.00;;;;;;5057759;28;20452;-77
2022/12/30 04:11:17;;;;;;;1.33;1.00;;;7.50;1.00;;;;;;5050941;28;21203;-76
2022/12/30 04:13:45;;;;;;;1.10;1.10;;;7.50;1.00;;;;;;5054970;28;21081;-77
2022/12/30 04:16:13;;;;;;;1.10;1.00;;;7.40;1.00;;;;;;5040063;28;20460;-78
2022/12/30 04:18:41;;;;;;;1.10;1.00;;;7.30;99.90;;;;;;5059116;28;20466;-78
2022/12/30 04:21:09;;;;;;;1.10;1.00;;;7.40;1.00;;;;;;5054702;28;20944;-77
2022/12/30 04:23:37;;;;;;;1.10;1.10;;;7.30;1.00;;;;;;5057842;28;20463;-78
2022/12/30 04:26:07;;;;;;;1.60;1.53;;;7.30;1.00;;;;;;5054385;28;20806;-78
2022/12/30 04:28:35;;;;;;;1.00;1.00;;;7.30;1.00;;;;;;5058670;28;20459;-77
2022/12/30 04:31:04;;;;;;;1.10;1.10;;;7.20;1.00;;;;;;5056256;28;20472;-78
2022/12/30 04:33:32;;;;;;;1.00;1.00;;;7.30;21.10;;;;;;5052872;28;20460;-78
2022/12/30 04:36:01;;;;;;;1.10;1.10;;;7.20;1.00;;;;;;5054537;28;20455;-78
2022/12/30 04:38:29;;;;;;;1.10;1.00;;;7.20;69.20;;;;;;5059603;28;20980;-77
2022/12/30 04:40:57;;;;;;;1.00;0.90;;;7.20;22.40;;;;;;5061075;28;20479;-77
2022/12/30 04:43:27;;;;;;;1.00;1.00;;;7.30;54.40;;;;;;5053771;28;20458;-77
2022/12/30 04:45:55;;;;;;;0.90;0.90;;;7.30;1.00;;;;;;5053336;28;21260;-78
2022/12/30 04:48:23;;;;;;;1.70;1.00;;;7.30;1.00;;;;;;5057631;28;20567;-77
2022/12/30 04:50:52;;;;;;;1.10;1.00;;;7.30;1.00;;;;;;5055891;28;20486;-77
2022/12/30 04:53:20;;;;;;;0.93;0.90;;;7.30;99.90;;;;;;5054663;28;20472;-77
2022/12/30 04:55:52;;;;;;;0.90;0.90;;;7.20;99.90;;;;;;5055732;28;20447;-77
2022/12/30 04:58:20;;;;;;;1.00;1.00;;;7.30;1.00;;;;;;5058954;28;20542;-77
2022/12/30 05:00:51;;;;;;;0.90;0.90;;;7.30;99.90;;;;;;5057242;28;20468;-77
2022/12/30 05:03:20;;;;;;;1.03;0.93;;;7.30;1.00;;;;;;5055092;28;20452;-78
2022/12/30 05:05:48;;;;;;;0.93;0.93;;;7.30;99.90;;;;;;5053739;28;20472;-76
2022/12/30 05:08:16;;;;;;;1.00;1.00;;;7.40;99.90;;;;;;5057454;28;20484;-77
2022/12/30 05:10:45;;;;;;;0.90;0.90;;;7.40;99.90;;;;;;5055828;28;20735;-77
2022/12/30 05:13:13;;;;;;;0.97;0.97;;;7.20;99.90;;;;;;5053479;28;21032;-77
2022/12/30 05:15:42;;;;;;;1.17;1.07;;;7.10;99.90;;;;;;5059073;28;20430;-78
2022/12/30 05:18:12;;;;;;;1.10;1.10;;;7.00;99.90;;;;;;5054039;28;20531;-78
2022/12/30 05:20:40;;;;;;;1.00;1.00;;;6.90;1.00;;;;;;5054071;28;20514;-78
2022/12/30 05:26:13;;;;;;;1.00;1.00;;;7.00;1.00;;;;;;5054030;28;20539;-78
2022/12/30 05:26:13;;;;;;;1.10;1.00;;;7.10;1.00;;;;;;5056647;28;20448;-76
2022/12/30 05:28:42;;;;;;;1.13;1.00;;;7.20;43.40;;;;;;5058371;28;20467;-77
2022/12/30 05:31:10;;;;;;;1.00;1.00;;;7.20;1.00;;;;;;5055075;28;21042;-78
2022/12/30 05:33:40;;;;;;;1.00;1.00;;;7.20;1.00;;;;;;5053420;28;20854;-77
2022/12/30 05:36:10;;;;;;;1.00;1.00;;;7.30;1.00;;;;;;5056924;28;20891;-77
2022/12/30 05:38:39;;;;;;;1.27;1.20;;;7.30;1.00;;;;;;5056963;28;20463;-77
2022/12/30 05:41:10;;;;;;;1.00;1.00;;;7.20;1.00;;;;;;5060728;28;20459;-77
2022/12/30 05:43:46;;;;;;;1.10;1.10;;;7.30;1.00;;;;;;5052562;28;20462;-76
2022/12/30 05:46:15;;;;;;;1.00;1.00;;;7.10;1.00;;;;;;5053822;28;21410;-77
2022/12/30 05:48:44;;;;;;;1.20;1.10;;;7.10;84.80;;;;;;5057637;28;20479;-77
2022/12/30 05:51:13;;;;;;;0.97;0.97;;;7.20;1.00;;;;;;5059735;28;20524;-79
2022/12/30 05:53:41;;;;;;;1.13;1.03;;;7.20;1.00;;;;;;5070045;28;20549;-77
2022/12/30 05:56:09;;;;;;;0.90;0.90;;;7.20;1.00;;;;;;5057121;28;20461;-78
2022/12/30 05:58:37;;;;;;;1.00;1.00;;;7.10;1.00;;;;;;5055531;28;20470;-75
2022/12/30 06:01:06;;;;;;;1.13;1.13;;;7.20;1.00;;;;;;5055631;28;20486;-77
2022/12/30 06:03:35;;;;;;;1.10;1.00;;;7.20;99.90;;;;;;5053628;28;20500;-78
2022/12/30 06:06:07;;;;;;;1.03;1.03;;;7.30;99.90;;;;;;5057890;28;20573;-77
2022/12/30 06:08:35;;;;;;;1.17;1.17;;;7.30;1.00;;;;;;5056764;28;20846;-78
2022/12/30 06:11:04;;;;;;;1.33;1.23;;;7.30;1.00;;;;;;5057789;28;20471;-77
2022/12/30 06:13:32;;;;;;;1.00;1.00;;;7.20;1.00;;;;;;5055505;28;20825;-78
2022/12/30 06:16:00;;;;;;;1.00;1.00;;;7.30;1.00;;;;;;5052163;28;20460;-77
2022/12/30 06:18:28;;;;;;;1.20;1.20;;;7.20;1.00;;;;;;5056692;28;20528;-77
2022/12/30 06:20:57;;;;;;;1.00;1.00;;;7.10;1.00;;;;;;5055063;28;20482;-77
2022/12/30 06:23:26;;;;;;;1.07;1.07;;;7.20;1.00;;;;;;5056771;28;20454;-76
2022/12/30 06:25:55;;;;;;;1.10;1.10;;;7.00;1.00;;;;;;5056518;28;20449;-76
2022/12/30 06:28:24;;;;;;;1.60;1.50;;;6.80;99.90;;;;;;5054668;28;21146;-78
2022/12/30 06:30:53;;;;;;;2.57;1.30;;;6.60;1.00;;;;;;5053742;28;20479;-78
2022/12/30 06:33:23;;;;;;;1.43;1.20;;;6.60;1.00;;;;;;5054497;28;20872;-77
2022/12/30 06:35:51;;;;;;;2.53;1.20;;;6.60;1.00;;;;;;5054262;28;20516;-77
2022/12/30 06:38:20;;;;;;;1.33;1.23;;;6.60;99.90;;;;;;5054122;28;20538;-76
2022/12/30 06:40:49;;;;;;;1.60;1.40;;;6.80;1.00;;;;;;5053746;28;20447;-75
2022/12/30 06:43:17;;;;;;;1.13;1.13;;;6.60;99.90;;;;;;5055087;28;21098;-76
2022/12/30 06:45:46;;;;;;;2.20;1.20;;;6.50;99.90;;;;;;5055522;28;20468;-77
2022/12/30 06:48:14;;;;;;;1.30;1.20;;;6.50;99.90;;;;;;5050898;28;20479;-78
2022/12/30 06:50:42;;;;;;;1.10;1.10;;;6.40;1.00;;;;;;5057695;28;20474;-77
2022/12/30 06:53:10;;;;;;;1.00;1.00;;;6.40;99.90;;;;;;5056441;28;20550;-76
2022/12/30 06:55:38;;;;;;;1.00;1.00;;;6.60;99.90;;;;;;5052794;28;20508;-75
2022/12/30 06:58:08;;;;;;;1.07;1.07;;;6.70;99.90;;;;;;5056154;28;20461;-75
2022/12/30 07:00:36;;;;;;;1.23;1.23;;;6.80;99.90;;;;;;5056205;28;20540;-76
2022/12/30 07:03:04;;;;;;;1.10;1.10;;;6.80;36.80;;;;;;5054676;28;20476;-77
2022/12/30 07:05:32;;;;;;;1.30;1.20;;;6.80;1.00;;;;;;5054699;28;20487;-77
2022/12/30 07:08:00;;;;;;;1.10;1.10;;;6.80;1.00;;;;;;5056381;28;20536;-77
2022/12/30 07:10:29;;;;;;;1.10;1.10;;;6.70;1.00;;;;;;5056816;28;20455;-78
2022/12/30 07:12:57;;;;;;;1.30;1.30;;;6.70;1.00;;;;;;5058550;28;20474;-78
2022/12/30 07:15:26;;;;;;;1.10;1.10;;;6.80;9.40;;;;;;5055925;28;21018;-78
2022/12/30 07:17:54;;;;;;;1.10;1.10;;;6.80;12.80;;;;;;5057890;28;20443;-76
2022/12/30 07:20:23;;;;;;;1.20;1.10;;;6.80;1.00;;;;;;5056482;28;20463;-78
2022/12/30 07:22:51;;;;;;;1.10;1.10;;;6.80;1.00;;;;;;5057114;28;21120;-78
2022/12/30 07:25:27;;;;;;;1.63;1.63;;;6.80;1.00;;;;;;5055303;28;20458;-77
2022/12/30 07:27:59;;;;;;;1.10;1.10;;;6.80;1.00;;;;;;5054001;28;20458;-77
2022/12/30 07:30:29;;;;;;;2.70;1.20;;;6.80;1.00;;;;;;5053987;28;20475;-77
2022/12/30 07:32:58;;;;;;;1.37;1.30;;;7.00;1.00;;;;;;5057556;28;21017;-78
2022/12/30 07:35:26;;;;;;;1.30;1.20;;;7.00;1.00;;;;;;5055131;28;20463;-77
2022/12/30 07:37:54;;;;;;;1.47;1.37;;;6.80;99.90;;;;;;5057208;28;20463;-77
2022/12/30 07:40:22;;;;;;;1.40;1.40;;;6.70;1.00;;;;;;5057500;28;20500;-77
2022/12/30 07:42:50;;;;;;;1.60;1.50;;;6.70;1.00;;;;;;5054440;28;21175;-78
2022/12/30 07:45:19;;;;;;;1.30;1.30;;;6.70;1.00;;;;;;5056323;28;20448;-78
2022/12/30 07:47:48;;;;;;;1.00;1.00;;;6.80;99.90;;;;;;5052103;28;20992;-78
2022/12/30 07:50:16;;;;;;;1.43;1.20;;;6.90;1.00;;;;;;5056719;28;20474;-77
2022/12/30 07:52:45;;;;;;;2.30;1.10;;;6.90;1.00;;;;;;5060559;28;20470;-77
2022/12/30 07:55:13;;;;;;;1.20;1.20;;;6.80;1.00;;;;;;5062709;28;20444;-78
2022/12/30 07:57:41;;;;;;;1.00;1.00;;;6.80;1.00;;;;;;5052996;28;20683;-77
2022/12/30 08:00:10;;;;;;;1.40;1.10;;;6.70;1.00;;;;;;5059503;28;20849;-78
2022/12/30 08:02:39;;;;;;;1.10;1.10;;;6.80;99.90;;;;;;5057385;28;20466;-76
2022/12/30 08:05:10;;;;;;;1.10;1.10;;;6.90;99.90;;;;;;5057563;28;20959;-77
2022/12/30 08:07:38;;;;;;;1.20;1.20;;;7.10;1.00;;;;;;5056887;28;20440;-78
2022/12/30 08:10:07;;;;;;;2.40;1.43;;;7.10;1.00;;;;;;5057601;28;20471;-77
2022/12/30 08:12:35;;;;;;;1.10;1.10;;;7.10;99.90;;;;;;5056292;28;20575;-78
2022/12/30 08:15:04;;;;;;;1.13;1.13;;;7.20;1.00;;;;;;5059135;28;20942;-77
2022/12/30 08:17:32;;;;;;;1.50;1.40;;;7.10;1.00;;;;;;5062459;28;20622;-78
2022/12/30 08:20:01;;;;;;;1.57;1.47;;;7.20;1.00;;;;;;5057932;28;20445;-77
2022/12/30 08:22:31;;;;;;;1.20;1.20;;;7.20;99.90;;;;;;5059279;28;20471;-78
2022/12/30 08:24:59;;;;;;;1.30;1.30;;;7.30;99.90;;;;;;5053852;28;20447;-78
2022/12/30 08:27:27;;;;;;;1.47;1.37;;;7.30;99.90;;;;;;5060108;28;20483;-77
2022/12/30 08:29:55;;;;;;;2.00;1.90;;;7.40;99.90;;;;;;5054910;28;20487;-78
2022/12/30 08:32:23;;;;;;;1.80;1.70;;;7.40;99.90;;;;;;5056473;28;20492;-77
2022/12/30 08:34:52;;;;;;;2.10;1.90;;;7.50;99.90;;;;;;5050598;28;20469;-77
2022/12/30 08:37:20;;;;;;;1.67;1.57;;;7.50;99.90;;;;;;5054323;28;20460;-78
2022/12/30 08:39:50;;;;;;;1.60;1.50;;;7.60;99.90;;;;;;5054499;28;20547;-78
2022/12/30 08:42:18;;;;;;;1.43;1.40;;;7.70;86.40;;;;;;5056869;28;20484;-76
2022/12/30 08:44:46;;;;;;;1.43;1.33;;;7.70;99.90;;;;;;5056573;28;20957;-78
2022/12/30 08:47:15;;;;;;;1.30;1.30;;;7.70;17.70;;;;;;5057445;28;20463;-77
2022/12/30 08:49:43;;;;;;;2.30;1.40;;;7.80;99.90;;;;;;5059662;28;20486;-77
2022/12/30 08:52:11;;;;;;;1.30;1.30;;;7.70;51.50;;;;;;5056832;28;20625;-76
2022/12/30 08:54:40;;;;;;;1.43;1.30;;;8.00;99.90;;;;;;5060291;28;20460;-77
2022/12/30 08:57:11;;;;;;;2.07;1.30;;;8.00;1.00;;;;;;5059373;28;20470;-77
2022/12/30 08:59:40;;;;;;;1.37;1.27;;;8.10;1.00;;;;;;5056436;28;20459;-78
2022/12/30 09:02:10;;;;;;;1.53;1.30;;;8.00;56.00;;;;;;5054976;28;20472;-77
2022/12/30 09:04:40;;;;;;;1.53;1.47;;;7.90;41.60;;;;;;5058901;28;21440;-78
2022/12/30 09:07:08;;;;;;;1.50;1.40;;;8.10;1.00;;;;;;5058013;28;20464;-77
2022/12/30 09:09:56;;;;;;;1.40;1.40;;;8.00;23.80;;;;;;5057352;28;21293;-77
2022/12/30 09:12:26;;;;;;;1.50;1.40;;;7.90;99.90;;;;;;5053878;28;20475;-78
2022/12/30 09:14:54;;;;;;;1.30;1.30;;;8.00;99.90;;;;;;5054909;28;20465;-77
2022/12/30 09:17:22;;;;;;;1.40;1.40;;;8.10;1.00;;;;;;5060972;28;20822;-77
2022/12/30 09:19:50;;;;;;;1.50;1.50;;;8.00;1.00;;;;;;5060467;28;20478;-76
2022/12/30 09:22:18;;;;;;;1.83;1.40;;;8.00;1.00;;;;;;5058536;28;20480;-76
2022/12/30 09:24:46;;;;;;;1.60;1.50;;;8.10;1.00;;;;;;5058663;28;20453;-78
2022/12/30 09:27:14;;;;;;;1.60;1.47;;;8.20;1.00;;;;;;5054523;28;20466;-78
2022/12/30 09:29:44;;;;;;;1.30;1.30;;;8.20;1.00;;;;;;5056420;28;20496;-78
2022/12/30 09:32:12;;;;;;;1.40;1.30;;;8.30;1.00;;;;;;5056093;28;20855;-78
2022/12/30 09:34:41;;;;;;;1.63;1.40;;;8.40;1.00;;;;;;5057296;28;20455;-78
2022/12/30 09:37:09;;;;;;;1.80;1.40;;;8.50;1.00;;;;;;5055870;28;20456;-77
2022/12/30 09:39:45;;;;;;;1.50;1.40;;;8.50;1.00;;;;;;5055125;28;20535;-77
2022/12/30 09:45:19;;;;;;;1.73;1.63;;;8.60;99.90;;;;;;5055612;28;20986;-78
2022/12/30 09:47:51;;;;;;;1.60;1.50;;;8.80;99.90;;;;;;5056773;28;20469;-78
2022/12/30 09:50:30;;;;;;;1.53;1.47;;;9.00;99.90;;;;;;5059604;28;20488;-79
2022/12/30 09:53:04;;;;;;;1.60;1.50;;;9.00;99.90;;;;;;5053099;28;20482;-76
2022/12/30 09:55:35;;;;;;;1.40;1.40;;;9.10;99.90;;;;;;5055842;28;20479;-78
2022/12/30 09:58:09;;;;;;;1.73;1.40;;;9.30;99.90;;;;;;5052672;28;20497;-77
2022/12/30 10:00:39;;;;;;;1.77;1.50;;;9.50;99.90;;;;;;5056438;28;20500;-78
2022/12/30 10:03:12;;;;;;;1.70;1.60;;;9.60;65.20;;;;;;5057157;28;20453;-77
2022/12/30 10:06:15;;;;;;;1.30;1.30;;;9.80;1.00;;;;;;5053986;28;20450;-76
2022/12/30 10:09:22;;;;;;;1.60;1.50;;;10.00;1.00;;;;;;5056646;28;20482;-77
2022/12/30 10:12:14;;;;;;;2.43;1.53;;;10.00;1.00;;;;;;5048744;28;20467;-77
2022/12/30 10:14:51;;;;;;;1.87;1.77;;;10.20;1.00;;;;;;5054090;28;21021;-77
2022/12/30 10:17:40;;;;;;;1.33;1.33;;;10.70;1.00;;;;;;5056795;28;20727;-77
2022/12/30 10:20:23;;;;;;;1.70;1.60;;;10.80;1.00;;;;;;5058348;28;20501;-78
2022/12/30 10:22:58;;;;;;;1.87;1.30;;;10.90;1.00;;;;;;5053776;28;20466;-77
2022/12/30 10:25:34;;;;;;;1.50;1.40;;;11.20;1.00;;;;;;5054259;28;20535;-79
2022/12/30 10:28:03;;;;;;;1.83;1.20;;;11.30;1.00;;;;;;5054481;28;20565;-78
2022/12/30 10:30:37;;;;;;;1.27;1.20;;;11.60;1.00;;;;;;5055189;28;20471;-78
2022/12/30 10:33:11;;;;;;;1.53;1.40;;;11.70;1.00;;;;;;5051957;28;20939;-77
2022/12/30 10:35:40;;;;;;;1.43;1.40;;;11.80;1.00;;;;;;5055619;28;20445;-77
2022/12/30 10:38:11;;;;;;;1.40;1.30;;;11.60;99.90;;;;;;5056033;28;20544;-76
2022/12/30 10:40:50;;;;;;;1.40;1.30;;;11.50;99.90;;;;;;5056938;28;20505;-77
2022/12/30 10:43:39;;;;;;;1.97;1.30;;;11.50;99.90;;;;;;5054118;28;20807;-77
2022/12/30 10:46:26;;;;;;;1.87;1.20;;;11.50;99.90;;;;;;5057996;28;20879;-76
2022/12/30 10:49:08;;;;;;;2.23;1.30;;;11.60;99.90;;;;;;5056528;28;20516;-78
2022/12/30 10:51:37;;;;;;;1.10;1.10;;;11.60;99.90;;;;;;5051695;28;20483;-77
2022/12/30 10:54:05;;;;;;;1.30;1.30;;;11.70;99.90;;;;;;5052696;28;20549;-77
2022/12/30 10:56:36;;;;;;;1.33;1.23;;;11.50;99.90;;;;;;5054734;28;20519;-78
2022/12/30 10:59:07;;;;;;;1.30;1.20;;;11.50;99.90;;;;;;5055962;28;20461;-76
2022/12/30 11:01:37;;;;;;;1.33;1.30;;;11.50;99.90;;;;;;5054914;28;20593;-78
2022/12/30 11:04:06;;;;;;;1.40;1.30;;;11.70;99.90;;;;;;5053816;28;20458;-77
2022/12/30 11:06:36;;;;;;;1.47;1.37;;;11.80;99.90;;;;;;5054686;28;20464;-78
2022/12/30 11:09:20;;;;;;;1.37;1.27;;;11.70;99.90;;;;;;5053873;28;20597;-79
2022/12/30 11:15:11;;;;;;;1.37;1.30;;;11.90;99.90;;;;;;5056039;28;20456;-77
2022/12/30 11:17:42;;;;;;;1.47;1.37;;;12.00;99.90;;;;;;5053034;28;20518;-76
2022/12/30 11:20:28;;;;;;;1.50;1.40;;;11.90;99.90;;;;;;5054146;28;20737;-77
2022/12/30 11:22:58;;;;;;;1.43;1.33;;;11.90;99.90;;;;;;5054348;28;20741;-74
2022/12/30 11:25:29;;;;;;;1.30;1.30;;;12.00;99.90;;;;;;5052870;28;20491;-78
2022/12/30 11:28:01;;;;;;;1.50;1.40;;;12.10;99.90;;;;;;5054783;28;20453;-77
2022/12/30 11:30:31;;;;;;;1.20;1.20;;;11.80;99.90;;;;;;5054477;28;20543;-79
2022/12/30 11:33:02;;;;;;;1.40;1.30;;;11.70;99.90;;;;;;5052929;28;20597;-78
2022/12/30 11:35:42;;;;;;;1.20;1.10;;;11.70;99.90;;;;;;5055175;28;20459;-78
2022/12/30 11:38:30;;;;;;;1.30;1.20;;;11.60;99.90;;;;;;5058033;28;20460;-78
2022/12/30 11:41:10;;;;;;;1.10;1.10;;;11.40;99.90;;;;;;5053588;28;20482;-77
2022/12/30 11:43:39;;;;;;;1.67;1.50;;;11.10;99.90;;;;;;5052757;28;20455;-79
2022/12/30 11:46:10;;;;;;;1.10;1.10;;;11.00;99.90;;;;;;5052304;28;20457;-77
2022/12/30 11:48:44;;;;;;;1.53;1.20;;;11.00;99.90;;;;;;5053274;28;20455;-77
2022/12/30 11:51:19;;;;;;;1.20;1.10;;;11.10;99.90;;;;;;5053409;28;20484;-79
2022/12/30 11:53:48;;;;;;;1.30;1.20;;;11.10;99.90;;;;;;5053323;28;20870;-78
2022/12/30 11:56:23;;;;;;;1.17;1.17;;;11.00;99.90;;;;;;5049530;28;21114;-78
2022/12/30 11:58:51;;;;;;;1.83;1.47;;;10.80;99.90;;;;;;5051287;28;20444;-78
2022/12/30 12:01:19;;;;;;;2.83;1.20;;;10.80;99.90;;;;;;5051206;28;20493;-78
2022/12/30 12:03:50;;;;;;;1.20;1.10;;;10.60;99.90;;;;;;5056048;28;20540;-77
2022/12/30 12:06:20;;;;;;;1.30;1.20;;;10.40;99.90;;;;;;5053848;28;20451;-77
2022/12/30 12:08:55;;;;;;;1.27;1.17;;;10.30;99.90;;;;;;5058016;28;20521;-77
2022/12/30 12:11:27;;;;;;;1.97;1.50;;;10.30;1.00;;;;;;5054883;28;21157;-77
2022/12/30 12:14:05;;;;;;;1.47;1.37;;;10.20;1.00;;;;;;5055091;28;20521;-77
2022/12/30 12:16:43;;;;;;;1.50;1.40;;;10.10;1.00;;;;;;5053225;28;20438;-79
2022/12/30 12:19:20;;;;;;;1.57;1.50;;;10.10;1.00;;;;;;5053981;28;20491;-77
2022/12/30 12:21:53;;;;;;;1.13;1.13;;;10.10;1.00;;;;;;5054551;28;21103;-77
2022/12/30 12:24:24;;;;;;;1.37;1.27;;;10.00;1.00;;;;;;5053141;28;20486;-76
2022/12/30 12:26:57;;;;;;;1.20;1.20;;;9.90;1.00;;;;;;5051209;28;20455;-78
2022/12/30 12:29:26;;;;;;;1.40;1.30;;;9.90;1.00;;;;;;5049463;28;20454;-78
2022/12/30 12:32:23;;;;;;;1.50;1.40;;;9.90;1.00;;;;;;5052355;28;20481;-78
2022/12/30 12:35:23;;;;;;;4.73;1.20;;;9.80;1.00;;;;;;5052596;28;20458;-79
2022/12/30 12:38:03;;;;;;;1.60;1.50;;;9.90;1.00;;;;;;5058411;28;20455;-78
2022/12/30 12:40:49;;;;;;;1.50;1.43;;;10.00;1.00;;;;;;5051418;28;20981;-77
2022/12/30 12:43:22;;;;;;;1.50;1.40;;;9.90;1.00;;;;;;5057589;28;20805;-77
2022/12/30 12:46:13;;;;;;;1.40;1.30;;;9.90;1.00;;;;;;5059163;28;20481;-77
2022/12/30 12:49:08;;;;;;;1.40;1.30;;;9.90;1.00;;;;;;5057645;28;20473;-77
2022/12/30 12:51:48;;;;;;;1.20;1.20;;;9.90;1.00;;;;;;5054448;28;20497;-79
2022/12/30 12:54:41;;;;;;;1.20;1.20;;;9.90;1.00;;;;;;5058347;28;20532;-78
2022/12/30 12:57:28;;;;;;;1.57;1.47;;;9.80;1.00;;;;;;5058015;28;20454;-77
2022/12/30 13:00:07;;;;;;;1.40;1.30;;;9.80;1.00;;;;;;5055876;28;20544;-78
2022/12/30 13:03:36;;;;;;;1.97;1.57;;;9.90;1.00;;;;;;5058702;28;20499;-78
2022/12/30 13:06:12;;;;;;;1.60;1.50;;;9.80;1.00;;;;;;5056589;28;20453;-78
2022/12/30 13:09:03;;;;;;;1.97;1.33;;;9.90;1.00;;;;;;5055295;28;20443;-78
2022/12/30 13:11:44;;;;;;;1.50;1.40;;;9.80;1.00;;;;;;5053633;28;20586;-77
2022/12/30 13:14:23;;;;;;;2.50;1.50;;;9.90;1.00;;;;;;5056092;28;20450;-76
2022/12/30 13:16:55;;;;;;;1.60;1.60;;;9.80;1.00;;;;;;5055270;28;20467;-78
2022/12/30 13:19:29;;;;;;;2.00;1.90;;;9.90;1.00;;;;;;5056030;28;20450;-77
2022/12/30 13:22:00;;;;;;;1.83;1.60;;;10.00;1.00;;;;;;5058401;28;20516;-78
2022/12/30 13:24:32;;;;;;;1.77;1.53;;;10.00;1.00;;;;;;5056454;28;20442;-77
2022/12/30 13:27:05;;;;;;;1.60;1.50;;;10.00;1.00;;;;;;5057308;28;20501;-77
2022/12/30 13:29:36;;;;;;;1.60;1.50;;;9.90;1.00;;;;;;5057428;28;20441;-77
2022/12/30 13:32:13;;;;;;;2.70;1.87;;;10.00;1.00;;;;;;5056602;28;20486;-78
2022/12/30 13:34:48;;;;;;;3.00;1.60;;;10.00;1.00;;;;;;5056106;28;21255;-78
2022/12/30 13:37:22;;;;;;;1.70;1.60;;;9.80;1.00;;;;;;5057054;28;21119;-77
2022/12/30 13:39:54;;;;;;;1.53;1.43;;;9.90;1.00;;;;;;5057072;28;20447;-77
2022/12/30 13:42:50;;;;;;;1.70;1.60;;;10.00;1.00;;;;;;5052529;28;20478;-77
2022/12/30 13:45:24;;;;;;;1.60;1.50;;;9.90;1.00;;;;;;5056190;28;21258;-77
2022/12/30 13:48:06;;;;;;;1.60;1.50;;;9.80;1.00;;;;;;5054377;28;20441;-78
2022/12/30 13:50:35;;;;;;;2.00;1.40;;;9.90;1.00;;;;;;5056969;28;20448;-79
2022/12/30 13:53:05;;;;;;;1.23;1.23;;;9.90;1.00;;;;;;5060923;28;20484;-78
2022/12/30 13:55:49;;;;;;;1.50;1.50;;;9.80;1.00;;;;;;5056983;28;20453;-78
2022/12/30 13:58:26;;;;;;;1.30;1.30;;;9.80;1.00;;;;;;5056028;28;20544;-78
2022/12/30 14:01:26;;;;;;;1.50;1.40;;;9.80;1.00;;;;;;5053027;28;20470;-78
2022/12/30 14:04:24;;;;;;;1.70;1.50;;;9.70;1.00;;;;;;5054615;28;20498;-79
2022/12/30 14:06:54;;;;;;;1.93;1.83;;;9.80;1.00;;;;;;5047891;28;20576;-77
2022/12/30 14:09:24;;;;;;;1.40;1.30;;;9.70;1.00;;;;;;5060058;28;21078;-78
2022/12/30 14:12:35;;;;;;;1.63;1.53;;;9.70;1.00;;;;;;5057091;28;20480;-78
2022/12/30 14:15:36;;;;;;;1.70;1.60;;;9.70;96.30;;;;;;5055252;28;20802;-77
2022/12/30 14:18:17;;;;;;;1.60;1.50;;;9.80;99.90;;;;;;5050148;28;20458;-77
2022/12/30 14:20:55;;;;;;;2.73;1.83;;;9.80;99.90;;;;;;5054514;28;20543;-76
2022/12/30 14:23:38;;;;;;;2.57;1.93;;;9.70;99.90;;;;;;5070411;28;20468;-77
2022/12/30 14:26:39;;;;;;;2.83;2.57;;;9.60;99.90;;;;;;5051976;28;20454;-77
2022/12/30 14:29:24;;;;;;;3.53;2.77;;;9.60;99.90;;;;;;5054964;28;20561;-78
2022/12/30 14:31:56;;;;;;;3.63;3.33;;;9.50;99.90;;;;;;5051053;28;20490;-78